Time;durP1;ratioP1;P1;durP2;ratioP2;P2;SDS_P1;SDS_P2;PMS_P1;PMS_P2;Temp;Humidity;BMP_temperature;BMP_pressure;BME280_temperature;BME280_humidity;BME280_pressure;Samples;Min_cycle;Max_cycle;Signal;HPM_P1;HPM_P2
2022/04/01 00:00:31;;;;;;;7.03;2.63;;;3.50;35.90;;;;;;5239149;28;20538;-49
2022/04/01 00:03:02;;;;;;;6.40;2.90;;;3.50;36.30;;;;;;5238116;28;20186;-52
2022/04/01 00:05:35;;;;;;;3.90;3.60;;;3.50;36.60;;;;;;5237534;28;20214;-51
2022/04/01 00:08:07;;;;;;;5.67;2.77;;;3.50;36.80;;;;;;5231615;28;20198;-50
2022/04/01 00:10:39;;;;;;;5.13;3.20;;;3.40;36.80;;;;;;5235397;28;20433;-51
2022/04/01 00:13:09;;;;;;;5.70;2.87;;;3.30;37.00;;;;;;5237688;28;20902;-51
2022/04/01 00:15:40;;;;;;;3.10;2.70;;;3.30;37.10;;;;;;5234548;28;20436;-53
2022/04/01 00:18:11;;;;;;;8.00;3.07;;;3.30;37.30;;;;;;5238478;28;20225;-51
2022/04/01 00:20:41;;;;;;;7.13;3.90;;;3.20;37.40;;;;;;5238978;28;20771;-52
2022/04/01 00:23:12;;;;;;;4.63;2.70;;;3.10;37.40;;;;;;5236284;28;20443;-51
2022/04/01 00:25:43;;;;;;;8.13;2.43;;;3.10;37.60;;;;;;5231233;28;20214;-50
2022/04/01 00:28:14;;;;;;;2.70;2.60;;;3.10;37.80;;;;;;5238941;28;20475;-49
2022/04/01 00:30:44;;;;;;;16.23;3.07;;;3.00;37.70;;;;;;5239846;28;20433;-50
2022/04/01 00:33:16;;;;;;;5.00;2.90;;;3.00;37.80;;;;;;5243484;28;20179;-50
2022/04/01 00:35:47;;;;;;;3.90;2.63;;;3.00;37.90;;;;;;5238549;28;20187;-50
2022/04/01 00:38:17;;;;;;;2.90;2.63;;;2.90;38.10;;;;;;5233430;28;20824;-51
2022/04/01 00:40:50;;;;;;;8.80;3.00;;;2.90;38.30;;;;;;5241837;28;20218;-49
2022/04/01 00:43:28;;;;;;;11.33;2.70;;;2.90;38.20;;;;;;5248048;28;20265;-49
2022/04/01 00:45:59;;;;;;;6.27;3.13;;;2.80;38.20;;;;;;5243506;28;20682;-49
2022/04/01 00:48:30;;;;;;;3.67;3.00;;;2.80;38.30;;;;;;5241067;28;20472;-49
2022/04/01 00:51:00;;;;;;;4.50;3.20;;;2.70;38.20;;;;;;5237731;28;20647;-51
2022/04/01 00:53:32;;;;;;;5.50;3.67;;;2.80;38.30;;;;;;5240785;28;20813;-51
2022/04/01 00:56:03;;;;;;;5.43;2.93;;;2.80;38.20;;;;;;5241866;28;20183;-48
2022/04/01 00:58:34;;;;;;;7.87;3.00;;;2.80;38.30;;;;;;5246093;28;20522;-50
2022/04/01 01:01:04;;;;;;;5.77;2.90;;;2.70;38.30;;;;;;5241728;28;20959;-49
2022/04/01 01:03:36;;;;;;;5.30;2.97;;;2.70;38.50;;;;;;5240959;28;20437;-51
2022/04/01 01:06:08;;;;;;;5.50;2.57;;;2.70;38.60;;;;;;5232898;28;20209;-50
2022/04/01 01:08:40;;;;;;;2.83;2.63;;;2.70;38.70;;;;;;5235791;28;20453;-51
2022/04/01 01:11:11;;;;;;;8.17;2.70;;;2.70;38.60;;;;;;5228968;28;21001;-50
2022/04/01 01:13:41;;;;;;;8.90;2.77;;;2.60;38.50;;;;;;5231398;28;20523;-51
2022/04/01 01:16:12;;;;;;;3.20;3.00;;;2.60;38.70;;;;;;5240835;28;20184;-50
2022/04/01 01:18:43;;;;;;;8.67;3.23;;;2.60;38.60;;;;;;5238126;28;20278;-52
2022/04/01 01:21:14;;;;;;;14.73;4.10;;;2.50;38.80;;;;;;5232608;28;20187;-50
2022/04/01 01:23:45;;;;;;;2.57;2.07;;;2.50;39.00;;;;;;5242503;28;20841;-51
2022/04/01 01:26:16;;;;;;;4.13;3.73;;;2.50;39.10;;;;;;5242534;28;20208;-50
2022/04/01 01:28:47;;;;;;;5.20;2.90;;;2.50;39.20;;;;;;5239595;28;20461;-52
2022/04/01 01:31:17;;;;;;;9.20;3.03;;;2.50;39.20;;;;;;5233866;28;20190;-52
2022/04/01 01:33:53;;;;;;;7.43;2.93;;;2.40;39.30;;;;;;5244226;28;20436;-51
2022/04/01 01:36:26;;;;;;;4.40;3.37;;;2.40;39.30;;;;;;5240294;28;20174;-49
2022/04/01 01:38:57;;;;;;;2.97;2.70;;;2.40;39.30;;;;;;5241173;28;20473;-51
2022/04/01 01:41:27;;;;;;;3.10;2.77;;;2.30;39.30;;;;;;5240579;28;20436;-51
2022/04/01 01:43:59;;;;;;;3.50;2.33;;;2.30;39.10;;;;;;5235878;28;20429;-50
2022/04/01 01:46:29;;;;;;;3.70;2.60;;;2.30;39.30;;;;;;5237900;28;20194;-50
2022/04/01 01:49:01;;;;;;;2.87;2.60;;;2.30;39.40;;;;;;5241821;28;20503;-50
2022/04/01 01:57:31;;;;;;;4.20;2.77;;;2.10;39.50;;;;;;5159323;28;20495;-49
2022/04/01 02:00:10;;;;;;;3.63;2.37;;;2.10;39.50;;;;;;5149535;28;20440;-49
2022/04/01 02:02:41;;;;;;;5.87;2.93;;;2.10;39.80;;;;;;5197721;28;20428;-50
2022/04/01 02:05:11;;;;;;;2.63;2.50;;;2.10;40.10;;;;;;5244857;28;20449;-50
2022/04/01 02:07:45;;;;;;;3.37;2.87;;;2.10;40.40;;;;;;5243748;28;20325;-51
2022/04/01 02:10:16;;;;;;;3.43;3.13;;;2.10;40.50;;;;;;5238176;28;20181;-50
2022/04/01 02:12:46;;;;;;;3.53;2.77;;;2.00;40.60;;;;;;5233145;28;20456;-50
2022/04/01 02:15:17;;;;;;;3.43;3.10;;;2.00;40.80;;;;;;5236256;28;20433;-51
2022/04/01 02:17:49;;;;;;;6.90;2.80;;;2.00;40.90;;;;;;5238921;28;20678;-51
2022/04/01 02:20:19;;;;;;;5.90;3.33;;;1.90;41.00;;;;;;5237373;28;20174;-51
2022/04/01 02:22:52;;;;;;;5.00;2.63;;;1.80;41.20;;;;;;5242547;28;20460;-49
2022/04/01 02:25:22;;;;;;;2.80;2.60;;;1.80;41.20;;;;;;5238234;28;20197;-50
2022/04/01 02:27:53;;;;;;;4.93;2.63;;;1.70;41.40;;;;;;5230674;28;20455;-49
2022/04/01 02:30:23;;;;;;;5.67;3.30;;;1.70;41.60;;;;;;5232136;28;20242;-49
2022/04/01 02:32:54;;;;;;;3.63;3.33;;;1.70;41.80;;;;;;5237966;28;20252;-50
2022/04/01 02:35:25;;;;;;;3.50;3.20;;;1.70;41.80;;;;;;5250410;28;20190;-51
2022/04/01 02:37:55;;;;;;;3.87;3.40;;;1.60;41.90;;;;;;5231390;28;20203;-49
2022/04/01 02:40:26;;;;;;;3.10;2.90;;;1.60;42.00;;;;;;5233608;28;20186;-53
2022/04/01 02:42:58;;;;;;;4.63;3.10;;;1.60;42.00;;;;;;5239642;28;20194;-49
2022/04/01 02:45:29;;;;;;;6.77;3.47;;;1.60;42.10;;;;;;5237972;28;20234;-51
2022/04/01 02:48:00;;;;;;;5.80;2.67;;;1.60;42.20;;;;;;5233153;28;20513;-51
2022/04/01 02:50:30;;;;;;;4.27;3.50;;;1.50;42.70;;;;;;5236947;28;20489;-50
2022/04/01 02:53:01;;;;;;;2.90;2.70;;;1.50;42.40;;;;;;5240501;28;20183;-51
2022/04/01 02:55:32;;;;;;;8.30;2.80;;;1.50;42.40;;;;;;5239870;28;20193;-51
2022/04/01 02:58:02;;;;;;;3.33;3.03;;;1.40;42.50;;;;;;5241046;28;20262;-49
2022/04/01 03:00:35;;;;;;;4.73;3.37;;;1.50;42.60;;;;;;5244031;28;20285;-50
2022/04/01 03:03:07;;;;;;;9.17;4.07;;;1.40;42.70;;;;;;5240321;28;20182;-51
2022/04/01 03:05:40;;;;;;;2.80;2.60;;;1.50;42.80;;;;;;5238297;28;20563;-51
2022/04/01 03:08:11;;;;;;;11.87;3.50;;;1.40;42.70;;;;;;5239837;28;20591;-50
2022/04/01 03:10:43;;;;;;;6.33;3.27;;;1.40;42.70;;;;;;5242335;28;20457;-51
2022/04/01 03:13:14;;;;;;;10.03;4.03;;;1.40;43.40;;;;;;5245224;28;20421;-50
2022/04/01 03:15:47;;;;;;;5.50;3.63;;;1.40;42.80;;;;;;5239075;28;20436;-49
2022/04/01 03:18:17;;;;;;;6.90;3.20;;;1.40;42.80;;;;;;5241872;28;20206;-50
2022/04/01 03:20:48;;;;;;;3.60;3.07;;;1.40;43.00;;;;;;5237087;28;20574;-51
2022/04/01 03:23:19;;;;;;;3.93;3.30;;;1.30;43.10;;;;;;5241528;28;20183;-51
2022/04/01 03:25:53;;;;;;;6.80;3.13;;;1.30;43.20;;;;;;5239640;28;20461;-52
2022/04/01 03:28:24;;;;;;;5.73;3.10;;;1.30;43.00;;;;;;5237797;28;20723;-52
2022/04/01 03:30:56;;;;;;;3.90;2.87;;;1.30;43.00;;;;;;5255956;28;20425;-50
2022/04/01 03:33:26;;;;;;;3.30;3.10;;;1.20;43.10;;;;;;5235609;28;20179;-51
2022/04/01 03:35:57;;;;;;;22.40;3.70;;;1.20;43.30;;;;;;5229931;28;21044;-51
2022/04/01 03:38:29;;;;;;;8.63;3.17;;;1.20;43.10;;;;;;5226568;28;20226;-51
2022/04/01 03:41:01;;;;;;;3.07;2.90;;;1.20;43.10;;;;;;5231454;28;20539;-49
2022/04/01 03:43:34;;;;;;;4.23;2.70;;;1.20;43.20;;;;;;5237829;28;20442;-51
2022/04/01 03:46:08;;;;;;;7.07;3.70;;;1.10;43.20;;;;;;5230929;28;20500;-51
2022/04/01 03:48:42;;;;;;;5.93;3.57;;;1.10;43.30;;;;;;5236511;28;20491;-51
2022/04/01 03:51:22;;;;;;;6.43;3.60;;;1.10;43.50;;;;;;5237290;28;20433;-50
2022/04/01 03:53:57;;;;;;;5.13;3.00;;;1.10;43.40;;;;;;5228862;28;20435;-51
2022/04/01 03:56:35;;;;;;;8.93;3.00;;;1.10;43.40;;;;;;5237214;28;20436;-52
2022/04/01 03:59:08;;;;;;;3.40;3.10;;;1.10;43.50;;;;;;5233227;28;20456;-50
2022/04/01 04:01:39;;;;;;;5.07;3.20;;;1.10;43.40;;;;;;5237247;28;20524;-50
2022/04/01 04:04:09;;;;;;;9.13;3.23;;;1.10;43.30;;;;;;5240629;28;20494;-50
2022/04/01 04:06:41;;;;;;;10.90;3.30;;;1.00;43.40;;;;;;5228056;28;20468;-50
2022/04/01 04:09:12;;;;;;;3.63;3.17;;;1.00;43.50;;;;;;5239213;28;20183;-51
2022/04/01 04:11:44;;;;;;;3.37;3.17;;;1.00;43.50;;;;;;5244311;28;20474;-51
2022/04/01 04:14:15;;;;;;;2.67;2.50;;;1.00;43.50;;;;;;5240504;28;20171;-49
2022/04/01 04:16:47;;;;;;;3.63;3.20;;;1.00;43.50;;;;;;5241703;28;21003;-52
2022/04/01 04:19:41;;;;;;;6.93;3.87;;;1.00;43.60;;;;;;5245478;28;20482;-50
2022/04/01 04:22:13;;;;;;;6.70;3.20;;;1.00;43.70;;;;;;5243586;28;20828;-50
2022/04/01 04:25:10;;;;;;;2.50;2.30;;;1.00;43.90;;;;;;5242390;28;20968;-50
2022/04/01 04:27:51;;;;;;;3.80;3.47;;;1.00;44.00;;;;;;5231753;28;20524;-48
2022/04/01 04:30:28;;;;;;;3.33;3.07;;;1.00;44.20;;;;;;5223546;28;20499;-52
2022/04/01 04:33:08;;;;;;;5.40;3.00;;;1.00;44.30;;;;;;5221650;28;20467;-49
2022/04/01 04:35:40;;;;;;;5.80;3.27;;;1.00;44.40;;;;;;5223820;28;20429;-50
2022/04/01 04:38:12;;;;;;;3.27;2.83;;;0.90;44.50;;;;;;5213889;28;20981;-52
2022/04/01 04:40:43;;;;;;;5.13;3.00;;;0.90;44.80;;;;;;5217385;28;20440;-51
2022/04/01 04:43:18;;;;;;;5.53;2.80;;;1.00;44.80;;;;;;5209533;28;20959;-50
2022/04/01 04:45:52;;;;;;;4.20;3.10;;;0.90;45.00;;;;;;5214428;28;20201;-53
2022/04/01 04:48:23;;;;;;;5.30;3.00;;;0.90;45.20;;;;;;5217942;28;20954;-50
2022/04/01 04:50:58;;;;;;;5.87;2.93;;;0.90;45.30;;;;;;5218145;28;20425;-49
2022/04/01 04:53:33;;;;;;;7.13;3.43;;;0.90;45.30;;;;;;5221870;28;20497;-51
2022/04/01 04:56:05;;;;;;;8.50;3.93;;;0.90;45.30;;;;;;5220151;28;21024;-49
2022/04/01 04:58:39;;;;;;;4.90;3.10;;;0.90;45.20;;;;;;5222220;28;20590;-49
2022/04/01 05:01:24;;;;;;;4.50;2.80;;;0.90;45.30;;;;;;5215880;28;20444;-52
2022/04/01 05:04:13;;;;;;;6.80;3.20;;;0.90;45.60;;;;;;5207146;28;20999;-50
2022/04/01 05:06:58;;;;;;;3.57;2.87;;;0.90;45.70;;;;;;5219272;28;20461;-52
2022/04/01 05:09:39;;;;;;;7.23;3.10;;;0.90;45.80;;;;;;5216669;28;20534;-51
2022/04/01 05:12:33;;;;;;;4.87;2.40;;;0.80;45.90;;;;;;5219819;28;20437;-51
2022/04/01 05:15:11;;;;;;;5.50;3.10;;;0.90;46.20;;;;;;5218967;28;20437;-51
2022/04/01 05:18:14;;;;;;;9.03;3.17;;;0.90;46.10;;;;;;5213799;28;20552;-50
2022/04/01 05:21:00;;;;;;;5.50;3.50;;;0.80;46.20;;;;;;5216808;28;20881;-51
2022/04/01 05:23:48;;;;;;;5.20;2.80;;;0.90;46.50;;;;;;5216069;28;20434;-52
2022/04/01 05:26:23;;;;;;;6.63;3.17;;;0.90;46.60;;;;;;5218599;28;20544;-51
2022/04/01 05:29:00;;;;;;;4.20;2.87;;;0.90;46.80;;;;;;5275556;22;20552;-47
2022/04/01 05:31:35;;;;;;;5.60;2.67;;;0.90;47.00;;;;;;5272754;28;20434;-48
2022/04/01 05:34:24;;;;;;;2.43;2.17;;;0.90;47.10;;;;;;5267242;28;20794;-50
2022/04/01 05:36:57;;;;;;;5.80;2.47;;;0.90;47.30;;;;;;5255864;28;21038;-49
2022/04/01 05:39:29;;;;;;;2.93;2.20;;;0.90;47.40;;;;;;5255501;28;21065;-47
2022/04/01 05:41:59;;;;;;;3.83;2.20;;;0.90;47.70;;;;;;5259964;28;20432;-49
2022/04/01 05:44:32;;;;;;;3.67;2.53;;;0.80;48.00;;;;;;5252291;28;20448;-48
2022/04/01 05:47:04;;;;;;;4.93;2.90;;;0.70;48.30;;;;;;5255957;28;20303;-50
2022/04/01 05:49:40;;;;;;;17.50;2.80;;;0.80;48.60;;;;;;5254883;28;20533;-47
2022/04/01 05:52:12;;;;;;;4.70;2.67;;;0.90;48.70;;;;;;5252636;28;20463;-47
2022/04/01 05:54:43;;;;;;;3.13;2.33;;;0.90;48.50;;;;;;5262692;28;20463;-48
2022/04/01 05:57:18;;;;;;;3.63;2.27;;;0.90;48.70;;;;;;5258905;28;20440;-48
2022/04/01 05:59:48;;;;;;;3.17;2.37;;;0.90;48.80;;;;;;5257782;28;20423;-46
2022/04/01 06:02:19;;;;;;;2.57;2.27;;;0.90;48.70;;;;;;5254192;28;20508;-50
2022/04/01 06:05:15;;;;;;;7.60;3.00;;;0.90;48.90;;;;;;5250088;28;20199;-48
2022/04/01 06:08:04;;;;;;;2.93;2.70;;;0.90;49.00;;;;;;5250259;28;20202;-48
2022/04/01 06:10:53;;;;;;;8.37;2.53;;;1.00;50.00;;;;;;5251162;28;20807;-50
2022/04/01 06:13:50;;;;;;;4.67;3.03;;;1.20;50.00;;;;;;5256429;28;20432;-48
2022/04/01 06:16:37;;;;;;;12.70;3.97;;;1.20;49.10;;;;;;5256605;28;20444;-47
2022/04/01 06:19:18;;;;;;;10.13;3.20;;;1.30;49.10;;;;;;5252914;28;20821;-47
2022/04/01 06:22:01;;;;;;;4.63;3.00;;;1.40;48.90;;;;;;5250821;28;20494;-47
2022/04/01 06:24:43;;;;;;;3.37;3.07;;;1.60;48.70;;;;;;5250167;28;20479;-46
2022/04/01 06:27:21;;;;;;;4.07;2.63;;;1.70;48.00;;;;;;5254552;28;20563;-48
2022/04/01 06:30:12;;;;;;;3.13;2.37;;;1.60;47.40;;;;;;5248858;28;20803;-48
2022/04/01 06:32:48;;;;;;;3.93;2.40;;;1.60;47.80;;;;;;5254628;28;20441;-47
2022/04/01 06:35:23;;;;;;;7.30;2.30;;;1.60;47.70;;;;;;5261346;28;20433;-47
2022/04/01 06:38:05;;;;;;;3.70;2.43;;;1.70;47.60;;;;;;5252064;28;20975;-48
2022/04/01 06:40:56;;;;;;;1.77;1.77;;;1.90;47.40;;;;;;5252782;28;20444;-47
2022/04/01 06:43:27;;;;;;;2.87;2.67;;;2.10;46.70;;;;;;5247576;28;20620;-47
2022/04/01 06:45:58;;;;;;;2.80;2.60;;;2.10;46.40;;;;;;5247437;28;20464;-47
2022/04/01 06:48:29;;;;;;;6.33;3.63;;;2.10;46.40;;;;;;5258631;28;20960;-47
2022/04/01 06:50:59;;;;;;;2.27;2.13;;;2.30;46.20;;;;;;5253508;28;20182;-51
2022/04/01 06:53:30;;;;;;;3.63;2.60;;;2.40;45.80;;;;;;5261125;28;20422;-48
2022/04/01 06:56:02;;;;;;;3.70;2.40;;;2.30;45.70;;;;;;5250858;28;20513;-49
2022/04/01 06:58:33;;;;;;;5.00;2.33;;;2.50;45.80;;;;;;5250331;28;20713;-48
2022/04/01 07:01:04;;;;;;;1.87;1.83;;;2.60;45.00;;;;;;5259549;28;20516;-49
2022/04/01 07:03:35;;;;;;;2.90;2.00;;;2.60;44.90;;;;;;5257960;28;20542;-46
2022/04/01 07:06:06;;;;;;;5.17;1.80;;;2.50;44.70;;;;;;5251520;28;20206;-48
2022/04/01 07:08:37;;;;;;;2.50;2.10;;;2.60;45.10;;;;;;5258589;28;20471;-48
2022/04/01 07:11:08;;;;;;;2.70;2.33;;;2.70;44.70;;;;;;5235352;28;20432;-48
2022/04/01 07:13:38;;;;;;;10.60;2.37;;;2.80;44.00;;;;;;5250249;28;20268;-49
2022/04/01 07:16:12;;;;;;;3.03;2.20;;;2.70;43.70;;;;;;5253164;28;20630;-50
2022/04/01 07:18:42;;;;;;;2.10;1.93;;;2.50;43.80;;;;;;5248642;28;20197;-49
2022/04/01 07:21:13;;;;;;;2.20;2.10;;;2.50;44.50;;;;;;5252687;28;20444;-47
2022/04/01 07:23:45;;;;;;;2.80;1.90;;;2.70;44.40;;;;;;5248954;28;20196;-47
2022/04/01 07:26:15;;;;;;;3.67;1.77;;;2.70;43.90;;;;;;5258332;28;20458;-49
2022/04/01 07:28:47;;;;;;;3.90;2.20;;;2.70;43.50;;;;;;5248363;28;20462;-47
2022/04/01 07:34:08;;;;;;;7.20;2.40;;;2.90;43.30;;;;;;5256723;28;20440;-48
2022/04/01 07:36:38;;;;;;;3.23;2.30;;;3.20;42.90;;;;;;5254249;28;20994;-48
2022/04/01 07:39:09;;;;;;;1.97;1.87;;;3.40;42.40;;;;;;5259132;28;20459;-49
2022/04/01 07:41:40;;;;;;;3.53;2.20;;;3.50;42.20;;;;;;5253715;28;20186;-48
2022/04/01 07:44:10;;;;;;;2.70;2.20;;;3.50;42.20;;;;;;5261501;28;20181;-49
2022/04/01 07:46:41;;;;;;;2.30;2.10;;;3.70;41.70;;;;;;5255524;28;20513;-49
2022/04/01 07:49:11;;;;;;;7.40;1.80;;;3.80;41.30;;;;;;5250814;28;20212;-49
2022/04/01 07:51:43;;;;;;;2.93;1.80;;;3.70;40.90;;;;;;5260835;28;20767;-47
2022/04/01 07:54:15;;;;;;;3.70;1.90;;;3.80;40.60;;;;;;5254638;28;20173;-49
2022/04/01 07:56:46;;;;;;;2.10;2.00;;;4.20;40.60;;;;;;5252037;28;20440;-47
2022/04/01 07:59:19;;;;;;;6.90;2.40;;;4.60;39.20;;;;;;5249735;28;20472;-47
2022/04/01 08:01:49;;;;;;;1.63;1.63;;;4.50;38.60;;;;;;5264793;28;20630;-47
2022/04/01 08:04:20;;;;;;;5.17;2.47;;;4.50;38.50;;;;;;5263077;28;20431;-48
2022/04/01 08:06:51;;;;;;;5.33;1.70;;;4.80;38.90;;;;;;5252008;28;20217;-48
2022/04/01 08:09:23;;;;;;;6.70;1.83;;;5.10;37.50;;;;;;5257029;28;20193;-49
2022/04/01 08:11:55;;;;;;;2.60;1.80;;;5.20;37.10;;;;;;5257062;28;20447;-47
2022/04/01 08:14:26;;;;;;;7.50;2.40;;;4.80;36.20;;;;;;5257497;28;20439;-51
2022/04/01 08:16:56;;;;;;;2.27;2.07;;;4.70;36.80;;;;;;5254779;28;20436;-48
2022/04/01 08:19:27;;;;;;;4.97;1.97;;;4.80;36.80;;;;;;5249211;28;20217;-49
2022/04/01 08:21:58;;;;;;;3.23;1.67;;;5.00;36.90;;;;;;5252383;28;20546;-49
2022/04/01 08:24:29;;;;;;;3.30;2.30;;;5.10;35.80;;;;;;5256837;28;20182;-47
2022/04/01 08:27:00;;;;;;;6.20;2.23;;;4.80;35.10;;;;;;5253202;28;20190;-47
2022/04/01 08:29:30;;;;;;;1.50;1.27;;;4.80;35.60;;;;;;5259254;28;20701;-49
2022/04/01 08:32:01;;;;;;;5.13;2.03;;;4.80;35.60;;;;;;5249112;28;20439;-46
2022/04/01 08:34:32;;;;;;;1.83;1.67;;;4.90;35.30;;;;;;5259087;28;20228;-46
2022/04/01 08:37:03;;;;;;;4.30;1.97;;;4.80;34.40;;;;;;5247248;28;20571;-48
2022/04/01 08:39:34;;;;;;;2.83;2.10;;;4.80;35.00;;;;;;5256047;28;20175;-48
2022/04/01 08:42:05;;;;;;;3.27;2.40;;;4.90;35.10;;;;;;5254778;28;20783;-46
2022/04/01 08:44:41;;;;;;;4.37;1.80;;;5.10;34.70;;;;;;5252542;28;20435;-47
2022/04/01 08:47:11;;;;;;;1.70;1.60;;;5.10;33.60;;;;;;5253372;28;20205;-46
2022/04/01 08:49:42;;;;;;;2.97;2.00;;;5.10;33.20;;;;;;5245432;28;20952;-48
2022/04/01 08:52:13;;;;;;;2.03;1.80;;;5.00;32.20;;;;;;5257775;28;20424;-48
2022/04/01 08:54:44;;;;;;;3.77;2.00;;;5.00;31.40;;;;;;5256103;28;20174;-47
2022/04/01 08:57:18;;;;;;;1.33;1.33;;;5.10;31.30;;;;;;5252138;28;21003;-48
2022/04/01 08:59:48;;;;;;;4.83;2.00;;;5.10;30.30;;;;;;5256285;28;20169;-49
2022/04/01 09:02:23;;;;;;;1.43;1.40;;;5.10;30.00;;;;;;5252780;28;20420;-48
2022/04/01 09:05:07;;;;;;;5.33;1.40;;;5.20;30.00;;;;;;5251712;28;20177;-47
2022/04/01 09:07:38;;;;;;;1.97;1.87;;;5.20;29.90;;;;;;5254843;28;20460;-48
2022/04/01 09:10:08;;;;;;;3.03;1.77;;;5.20;30.00;;;;;;5257136;28;20454;-50
2022/04/01 09:12:59;;;;;;;2.67;2.13;;;5.30;29.90;;;;;;5253476;28;20268;-48
2022/04/01 09:15:41;;;;;;;3.30;1.87;;;5.50;29.80;;;;;;5256816;28;20205;-50
2022/04/01 09:18:12;;;;;;;2.43;2.23;;;5.60;29.20;;;;;;5253858;28;20456;-49
2022/04/01 09:20:45;;;;;;;1.60;1.50;;;5.50;29.00;;;;;;5257956;28;20444;-49
2022/04/01 09:23:23;;;;;;;6.43;2.00;;;5.40;29.20;;;;;;5264505;28;20190;-48
2022/04/01 09:25:54;;;;;;;4.87;1.73;;;5.30;29.20;;;;;;5250178;28;20508;-50
2022/04/01 09:28:29;;;;;;;7.00;2.30;;;5.30;29.10;;;;;;5260215;28;20476;-48
2022/04/01 09:31:06;;;;;;;2.80;1.90;;;5.40;29.30;;;;;;5250755;28;20224;-48
2022/04/01 09:33:42;;;;;;;10.23;2.53;;;5.40;29.10;;;;;;5255594;28;20893;-48
2022/04/01 09:36:24;;;;;;;7.57;1.70;;;5.30;29.20;;;;;;5254869;28;20439;-47
2022/04/01 09:38:58;;;;;;;2.20;1.77;;;5.30;28.90;;;;;;5261242;28;20439;-52
2022/04/01 09:41:35;;;;;;;2.60;2.03;;;5.40;29.00;;;;;;5258233;28;20413;-48
2022/04/01 09:44:20;;;;;;;6.23;2.80;;;5.60;29.60;;;;;;5263102;28;20427;-47
2022/04/01 09:46:54;;;;;;;2.50;2.13;;;5.80;29.80;;;;;;5256375;28;20467;-48
2022/04/01 09:49:39;;;;;;;4.07;3.20;;;5.50;29.70;;;;;;5259265;28;20977;-49
2022/04/01 09:52:15;;;;;;;4.80;2.70;;;5.40;30.00;;;;;;5258897;28;20428;-49
2022/04/01 09:54:47;;;;;;;4.77;2.00;;;5.60;30.20;;;;;;5255758;28;20482;-49
2022/04/01 09:57:21;;;;;;;6.93;1.80;;;5.60;30.10;;;;;;5253141;28;20451;-47
2022/04/01 09:59:53;;;;;;;7.37;2.40;;;5.70;30.00;;;;;;5256895;28;21023;-48
2022/04/01 10:02:23;;;;;;;5.10;1.87;;;5.60;30.00;;;;;;5258072;28;20444;-48
2022/04/01 10:04:54;;;;;;;7.03;2.27;;;5.80;30.20;;;;;;5260719;28;20486;-49
2022/04/01 10:07:29;;;;;;;19.87;2.73;;;5.90;30.20;;;;;;5250338;28;20209;-48
2022/04/01 10:10:01;;;;;;;7.97;2.60;;;6.00;30.00;;;;;;5258095;28;20807;-51
2022/04/01 10:12:40;;;;;;;4.57;2.23;;;6.00;29.90;;;;;;5264756;28;20435;-48
2022/04/01 10:15:11;;;;;;;14.67;3.80;;;6.00;29.90;;;;;;5263286;28;20488;-51
2022/04/01 10:17:42;;;;;;;8.33;2.70;;;6.20;29.70;;;;;;5249892;28;20565;-47
2022/04/01 10:20:13;;;;;;;7.07;2.50;;;6.00;29.40;;;;;;5265830;28;20174;-48
2022/04/01 10:22:45;;;;;;;18.27;2.63;;;6.00;29.40;;;;;;5267964;28;20443;-48
2022/04/01 10:25:30;;;;;;;6.73;2.10;;;5.90;29.10;;;;;;5259595;28;20249;-49
2022/04/01 10:28:02;;;;;;;10.47;2.87;;;6.10;29.30;;;;;;5261883;28;20459;-49
2022/04/01 10:30:34;;;;;;;3.93;1.93;;;6.00;28.90;;;;;;5259816;28;20435;-48
2022/04/01 10:33:09;;;;;;;2.20;1.83;;;5.90;29.10;;;;;;5261816;28;20944;-48
2022/04/01 10:35:40;;;;;;;2.93;2.30;;;5.90;28.90;;;;;;5254844;28;20431;-50
2022/04/01 10:38:10;;;;;;;8.80;1.93;;;6.10;28.90;;;;;;5263075;28;20451;-48
2022/04/01 10:40:44;;;;;;;7.80;2.03;;;6.10;28.30;;;;;;5266695;28;20226;-48
2022/04/01 10:43:29;;;;;;;2.67;1.70;;;6.20;28.10;;;;;;5264796;28;20544;-48
2022/04/01 10:46:06;;;;;;;7.70;2.20;;;6.20;27.50;;;;;;5260881;28;20449;-48
2022/04/01 10:51:38;;;;;;;2.33;2.03;;;6.40;27.20;;;;;;5251461;28;20527;-50
2022/04/01 10:54:14;;;;;;;4.10;1.73;;;6.60;27.20;;;;;;5252865;28;20411;-49
2022/04/01 10:57:05;;;;;;;2.00;1.90;;;6.60;27.10;;;;;;5258685;28;20431;-50
2022/04/01 10:59:41;;;;;;;3.70;2.13;;;6.50;27.10;;;;;;5260844;28;20460;-48
2022/04/01 11:02:15;;;;;;;2.00;1.83;;;6.40;27.10;;;;;;5259200;28;20515;-52
2022/04/01 11:04:48;;;;;;;1.77;1.67;;;6.40;26.90;;;;;;5249185;28;20965;-50
2022/04/01 11:07:22;;;;;;;1.60;1.50;;;6.40;26.50;;;;;;5254610;28;20967;-49
2022/04/01 11:10:06;;;;;;;1.40;1.33;;;6.40;26.50;;;;;;5253415;28;20943;-47
2022/04/01 11:12:50;;;;;;;3.07;1.70;;;6.40;26.60;;;;;;5258675;28;20428;-49
2022/04/01 11:15:26;;;;;;;2.40;1.47;;;6.50;26.40;;;;;;5249149;28;20436;-47
2022/04/01 11:17:57;;;;;;;1.47;1.37;;;6.60;26.50;;;;;;5247965;28;20453;-49
2022/04/01 11:20:28;;;;;;;2.60;2.13;;;6.70;26.10;;;;;;5255490;28;20525;-48
2022/04/01 11:23:05;;;;;;;5.03;2.30;;;6.80;26.10;;;;;;5250350;28;20516;-49
2022/04/01 11:25:36;;;;;;;2.60;1.73;;;6.70;26.30;;;;;;5249094;28;20456;-48
2022/04/01 11:28:10;;;;;;;4.43;1.47;;;6.80;26.20;;;;;;5250621;28;20460;-49
2022/04/01 11:30:41;;;;;;;2.33;2.10;;;6.70;26.10;;;;;;5250656;28;20442;-48
2022/04/01 11:33:16;;;;;;;7.30;2.20;;;6.90;26.30;;;;;;5254209;28;20428;-48
2022/04/01 11:35:50;;;;;;;1.60;1.60;;;7.10;26.10;;;;;;5267622;28;20172;-50
2022/04/01 11:38:24;;;;;;;3.40;1.67;;;7.20;25.80;;;;;;5251126;28;20468;-49
2022/04/01 11:40:58;;;;;;;3.40;1.50;;;6.70;25.30;;;;;;5266167;28;20433;-49
2022/04/01 11:43:30;;;;;;;1.43;1.30;;;6.80;25.60;;;;;;5250763;28;20436;-49
2022/04/01 11:46:04;;;;;;;4.00;1.50;;;7.00;25.60;;;;;;5257012;28;20862;-49
2022/04/01 11:48:37;;;;;;;11.73;1.50;;;7.00;25.40;;;;;;5254313;28;20593;-49
2022/04/01 11:51:14;;;;;;;7.20;2.40;;;6.90;25.20;;;;;;5250811;28;20437;-49
2022/04/01 11:53:51;;;;;;;6.50;2.60;;;7.00;25.20;;;;;;5260771;28;20518;-48
2022/04/01 11:56:26;;;;;;;5.70;1.47;;;7.10;25.00;;;;;;5256743;28;20443;-48
2022/04/01 11:59:05;;;;;;;13.90;2.07;;;6.90;24.50;;;;;;5256900;28;20541;-50
2022/04/01 12:02:01;;;;;;;4.37;1.70;;;6.80;25.00;;;;;;5251924;28;20807;-49
2022/04/01 12:04:34;;;;;;;9.43;2.20;;;7.00;25.10;;;;;;5251538;28;20444;-50
2022/04/01 12:10:16;;;;;;;3.80;1.70;;;7.20;24.50;;;;;;5259228;28;20789;-51
2022/04/01 12:13:02;;;;;;;3.13;1.70;;;7.20;24.40;;;;;;5259460;28;20543;-50
2022/04/01 12:15:36;;;;;;;10.37;2.57;;;7.30;24.90;;;;;;5252859;28;20440;-47
2022/04/01 12:18:08;;;;;;;3.90;1.90;;;7.40;24.60;;;;;;5249453;28;20485;-49
2022/04/01 12:20:52;;;;;;;4.63;1.63;;;7.50;24.20;;;;;;5230491;28;20498;-50
2022/04/01 12:23:26;;;;;;;15.73;2.07;;;7.30;24.20;;;;;;5247810;28;20820;-50
2022/04/01 12:25:57;;;;;;;6.40;1.77;;;7.20;24.60;;;;;;5249090;28;20466;-49
2022/04/01 12:28:40;;;;;;;1.67;1.50;;;7.30;24.70;;;;;;5256014;28;20842;-50
2022/04/01 12:31:27;;;;;;;2.93;1.90;;;7.30;24.60;;;;;;5253359;28;20204;-49
2022/04/01 12:33:58;;;;;;;7.93;2.00;;;7.60;24.60;;;;;;5259919;28;20954;-48
2022/04/01 12:36:32;;;;;;;1.40;1.40;;;7.60;24.10;;;;;;5252610;28;20410;-50
2022/04/01 12:39:07;;;;;;;3.27;1.73;;;7.70;24.00;;;;;;5249879;28;20442;-49
2022/04/01 12:42:14;;;;;;;8.13;1.70;;;7.70;23.90;;;;;;5255004;28;20432;-50
2022/04/01 12:44:45;;;;;;;7.47;1.50;;;7.60;23.90;;;;;;5209417;28;20441;-50
2022/04/01 12:47:30;;;;;;;19.83;1.77;;;7.40;24.10;;;;;;5247422;28;20549;-49
2022/04/01 12:50:00;;;;;;;6.87;2.23;;;7.50;24.30;;;;;;5252183;28;20187;-50
2022/04/01 12:52:31;;;;;;;5.63;1.70;;;7.30;24.30;;;;;;5257894;28;20458;-50
2022/04/01 12:55:01;;;;;;;5.10;2.10;;;7.40;24.50;;;;;;5259505;28;20207;-51
2022/04/01 12:57:35;;;;;;;7.40;2.00;;;7.60;24.50;;;;;;5262020;28;20226;-49
2022/04/01 13:00:14;;;;;;;1.87;1.63;;;7.80;23.90;;;;;;5252102;28;20197;-49
2022/04/01 13:02:45;;;;;;;2.80;1.60;;;7.70;23.60;;;;;;5259489;28;21256;-50
2022/04/01 13:05:16;;;;;;;1.77;1.67;;;7.70;23.80;;;;;;5265810;28;20526;-48
2022/04/01 13:07:47;;;;;;;2.07;1.60;;;7.80;24.00;;;;;;5260484;28;20198;-49
2022/04/01 13:10:17;;;;;;;2.17;1.90;;;7.70;23.90;;;;;;5249593;28;20964;-49
2022/04/01 13:12:51;;;;;;;1.67;1.67;;;7.50;23.80;;;;;;5245923;28;20178;-50
2022/04/01 13:15:24;;;;;;;1.90;1.77;;;7.50;24.00;;;;;;5242105;28;20547;-49
2022/04/01 13:17:57;;;;;;;4.77;2.00;;;7.40;23.50;;;;;;5262339;28;20465;-49
2022/04/01 13:20:30;;;;;;;7.40;1.57;;;7.30;23.80;;;;;;5256202;28;20430;-49
2022/04/01 13:23:03;;;;;;;3.53;1.90;;;7.40;23.90;;;;;;5262675;28;20829;-48
2022/04/01 13:25:34;;;;;;;2.23;2.07;;;7.50;24.20;;;;;;5250977;28;20476;-50
2022/04/01 13:28:05;;;;;;;9.03;2.10;;;7.70;24.30;;;;;;5258354;28;20958;-49
2022/04/01 13:30:36;;;;;;;10.73;1.90;;;7.90;24.50;;;;;;5261803;28;20624;-50
2022/04/01 13:33:07;;;;;;;7.07;2.00;;;8.00;24.50;;;;;;5249460;28;20488;-49
2022/04/01 13:35:37;;;;;;;7.63;2.07;;;8.10;24.30;;;;;;5251424;28;20505;-50
2022/04/01 13:38:08;;;;;;;6.30;2.93;;;8.00;24.00;;;;;;5250013;28;20463;-49
2022/04/01 13:40:38;;;;;;;3.40;2.13;;;8.20;24.10;;;;;;5250552;28;20189;-49
2022/04/01 13:43:10;;;;;;;6.67;1.60;;;8.10;23.50;;;;;;5248710;28;20197;-51
2022/04/01 13:45:40;;;;;;;2.40;2.30;;;8.20;23.60;;;;;;5247709;28;20209;-50